Time;durP1;ratioP1;P1;durP2;ratioP2;P2;SDS_P1;SDS_P2;PMS_P1;PMS_P2;Temp;Humidity;BMP_temperature;BMP_pressure;BME280_temperature;BME280_humidity;BME280_pressure;Samples;Min_cycle;Max_cycle;Signal;HPM_P1;HPM_P2
2022/04/01 16:19:20;;;;;;;38.95;11.73;;;17.10;81.50;;;;;;5071855;28;20383;-86
2022/04/01 16:21:47;;;;;;;34.47;10.73;;;17.20;82.40;;;;;;5069727;28;20475;-82
2022/04/01 16:24:13;;;;;;;25.50;11.05;;;17.10;82.80;;;;;;5070814;28;20031;-83
2022/04/01 16:26:39;;;;;;;130.70;82.82;;;17.00;83.00;;;;;;5071189;28;20078;-83
2022/04/01 16:29:05;;;;;;;39.35;22.48;;;17.00;83.10;;;;;;5070532;28;20033;-83
2022/04/01 16:31:31;;;;;;;40.22;16.13;;;16.90;83.10;;;;;;5070424;28;20103;-83
2022/04/01 16:33:58;;;;;;;24.95;9.60;;;16.90;83.10;;;;;;5070744;28;20117;-82
2022/04/01 16:36:24;;;;;;;24.30;8.85;;;16.80;83.00;;;;;;5070479;28;20028;-83
2022/04/01 16:38:50;;;;;;;27.60;12.20;;;16.80;82.90;;;;;;5070254;28;20446;-83
2022/04/01 16:41:17;;;;;;;25.30;11.73;;;16.80;82.60;;;;;;5070331;28;20092;-82
2022/04/01 16:43:44;;;;;;;25.50;12.70;;;16.80;82.80;;;;;;5070037;28;20108;-82
2022/04/01 16:46:11;;;;;;;32.78;12.80;;;16.80;82.50;;;;;;5070384;28;20059;-83
2022/04/01 16:48:36;;;;;;;29.58;12.10;;;16.80;81.80;;;;;;5069985;28;20020;-82
2022/04/01 16:51:03;;;;;;;23.98;9.80;;;16.80;81.90;;;;;;5068826;28;20490;-81
2022/04/01 16:53:30;;;;;;;29.80;10.55;;;16.80;81.50;;;;;;5061713;28;20561;-81
2022/04/01 16:55:58;;;;;;;22.20;8.73;;;16.80;81.70;;;;;;5064619;28;20375;-81
2022/04/01 16:58:27;;;;;;;32.17;10.52;;;16.80;81.40;;;;;;5053802;28;20029;-81
2022/04/01 17:00:54;;;;;;;37.45;14.88;;;16.80;81.60;;;;;;5055890;28;20021;-81
2022/04/01 17:03:20;;;;;;;30.48;12.82;;;16.80;81.20;;;;;;5052903;28;20030;-81
2022/04/01 17:13:58;;;;;;;36.25;14.23;;;16.70;83.40;;;;;;5069930;28;20047;-81
2022/04/01 17:16:24;;;;;;;30.83;13.38;;;16.60;84.60;;;;;;5069746;28;20028;-81
2022/04/01 17:18:49;;;;;;;35.67;15.25;;;16.60;84.80;;;;;;5060567;28;20049;-81
2022/04/01 17:21:15;;;;;;;33.70;15.60;;;16.60;86.30;;;;;;5050028;28;20036;-81
2022/04/01 17:23:43;;;;;;;37.70;15.98;;;16.60;86.90;;;;;;5067477;28;20116;-81
2022/04/01 17:26:09;;;;;;;43.40;17.95;;;16.60;87.20;;;;;;5068266;28;20025;-81
2022/04/01 17:28:35;;;;;;;35.22;14.98;;;16.60;87.50;;;;;;5066962;28;20033;-81
2022/04/01 17:31:03;;;;;;;32.63;14.30;;;16.60;87.50;;;;;;5036513;28;20029;-81
2022/04/01 17:33:29;;;;;;;38.40;17.13;;;16.50;87.80;;;;;;5049039;28;20120;-81
2022/04/01 17:35:59;;;;;;;43.38;17.63;;;16.50;88.40;;;;;;5049889;28;20029;-81
2022/04/01 17:38:26;;;;;;;43.95;19.33;;;16.50;88.70;;;;;;5036103;28;20022;-81
2022/04/01 17:40:58;;;;;;;42.35;19.17;;;16.40;88.90;;;;;;5034873;28;20033;-81
2022/04/01 17:43:25;;;;;;;40.70;18.10;;;16.30;89.00;;;;;;5034769;28;20415;-81
2022/04/01 17:45:51;;;;;;;41.30;17.95;;;16.20;89.30;;;;;;5034707;28;20472;-81
2022/04/01 17:48:18;;;;;;;49.92;21.52;;;16.20;89.60;;;;;;5034890;28;20036;-81
2022/04/01 17:50:44;;;;;;;53.95;23.33;;;16.10;89.90;;;;;;5035895;28;20021;-81
2022/04/01 17:53:09;;;;;;;54.97;21.63;;;16.10;90.10;;;;;;5034727;28;20030;-81
2022/04/01 17:55:40;;;;;;;52.35;21.77;;;15.90;90.20;;;;;;5035699;28;20029;-81
2022/04/01 17:58:11;;;;;;;41.35;19.42;;;15.90;90.40;;;;;;5035680;28;20476;-81
2022/04/01 18:00:36;;;;;;;48.05;22.98;;;15.80;90.60;;;;;;5034458;28;20025;-81
2022/04/01 18:03:10;;;;;;;49.05;20.98;;;15.70;90.80;;;;;;5035093;28;20028;-82
2022/04/01 18:05:36;;;;;;;45.97;20.98;;;15.60;91.10;;;;;;5035636;28;20022;-81
2022/04/01 18:08:02;;;;;;;44.83;21.58;;;15.50;91.10;;;;;;5033808;28;20124;-81
2022/04/01 18:10:29;;;;;;;51.28;22.23;;;15.40;91.20;;;;;;5033842;28;20029;-81
2022/04/01 18:12:55;;;;;;;52.45;21.25;;;15.30;91.40;;;;;;5034483;28;20052;-81
2022/04/01 18:15:22;;;;;;;44.47;21.30;;;15.20;91.50;;;;;;5033973;28;20412;-81
2022/04/01 18:17:47;;;;;;;48.03;20.40;;;15.10;91.70;;;;;;5033876;28;20447;-81
2022/04/01 18:20:14;;;;;;;43.55;21.70;;;15.00;91.80;;;;;;5035429;28;20024;-81
2022/04/01 18:22:40;;;;;;;49.55;22.65;;;15.00;92.00;;;;;;5033963;28;20025;-81
2022/04/01 18:25:12;;;;;;;48.58;21.52;;;14.90;92.20;;;;;;5035393;28;20090;-81
2022/04/01 18:27:40;;;;;;;48.85;23.50;;;14.90;92.40;;;;;;5032808;28;20370;-81
2022/04/01 18:30:09;;;;;;;53.28;23.92;;;14.80;92.50;;;;;;5034633;28;20380;-81
2022/04/01 18:32:39;;;;;;;41.35;21.23;;;14.80;92.70;;;;;;5034417;28;20025;-81
2022/04/01 18:35:06;;;;;;;55.63;24.10;;;14.70;92.90;;;;;;5033799;28;20026;-81
2022/04/01 18:37:33;;;;;;;42.15;21.75;;;14.60;93.10;;;;;;5033597;28;20026;-81
2022/04/01 18:40:05;;;;;;;46.83;23.17;;;14.60;93.30;;;;;;5033811;28;20014;-81
2022/04/01 18:42:32;;;;;;;39.88;22.70;;;14.60;93.50;;;;;;5032870;28;20025;-81
2022/04/01 18:45:00;;;;;;;50.30;24.13;;;14.50;93.70;;;;;;5033516;28;20025;-81
2022/04/01 18:47:26;;;;;;;56.42;22.52;;;14.40;93.80;;;;;;5033404;28;20021;-81
2022/04/01 18:49:52;;;;;;;40.03;20.77;;;14.40;94.00;;;;;;5034892;28;20026;-81
2022/04/01 18:52:19;;;;;;;45.30;21.45;;;14.30;94.40;;;;;;5033474;28;20076;-81
2022/04/01 18:54:46;;;;;;;57.92;23.60;;;14.20;94.50;;;;;;5034824;28;20055;-81
2022/04/01 18:57:12;;;;;;;51.15;19.77;;;14.20;94.90;;;;;;5034491;28;20029;-82
2022/04/01 18:59:38;;;;;;;49.60;18.30;;;14.10;94.90;;;;;;5033611;28;20083;-83
2022/04/01 19:02:06;;;;;;;54.25;16.48;;;14.20;94.90;;;;;;5033542;28;20468;-83
2022/04/01 19:04:34;;;;;;;58.38;16.98;;;14.20;94.70;;;;;;5034639;28;20140;-81
2022/04/01 19:07:42;;;;;;;49.65;16.73;;;14.30;94.50;;;;;;5034602;28;20029;-85
2022/04/01 19:10:11;;;;;;;55.65;15.75;;;14.30;93.70;;;;;;5022615;28;20490;-82
2022/04/01 19:12:37;;;;;;;111.90;57.38;;;14.40;93.60;;;;;;5034307;28;20025;-84
2022/04/01 19:15:05;;;;;;;72.53;28.75;;;14.30;93.20;;;;;;5033067;28;20025;-83
2022/04/01 19:17:34;;;;;;;45.25;14.20;;;14.40;92.90;;;;;;5032859;28;20053;-82
2022/04/01 19:20:07;;;;;;;57.28;12.25;;;14.40;92.70;;;;;;5034232;28;20024;-82
2022/04/01 19:22:37;;;;;;;49.75;9.43;;;14.40;92.30;;;;;;5034221;28;20037;-82
2022/04/01 19:25:06;;;;;;;48.40;11.35;;;14.40;91.90;;;;;;5033020;28;20017;-82
2022/04/01 19:27:32;;;;;;;61.97;10.38;;;14.50;91.40;;;;;;5034032;28;20104;-82
2022/04/01 19:29:58;;;;;;;57.85;10.90;;;14.50;91.10;;;;;;5034196;28;20107;-82
2022/04/01 19:32:23;;;;;;;44.50;9.65;;;14.60;90.60;;;;;;5033956;28;20021;-82
2022/04/01 19:34:50;;;;;;;48.78;9.07;;;14.60;90.30;;;;;;5032774;28;20076;-82
2022/04/01 19:37:17;;;;;;;59.45;9.95;;;14.70;90.10;;;;;;5032530;28;20415;-83
2022/04/01 19:39:43;;;;;;;45.05;9.48;;;14.70;89.40;;;;;;5032756;28;20021;-82
2022/04/01 19:42:09;;;;;;;49.33;9.63;;;14.80;88.90;;;;;;5032535;28;20495;-82
2022/04/01 19:44:36;;;;;;;51.67;10.20;;;14.80;88.70;;;;;;5033856;28;20025;-82
2022/04/01 19:47:02;;;;;;;48.88;8.27;;;14.80;88.00;;;;;;5032339;28;20480;-82
2022/04/01 19:49:28;;;;;;;43.10;9.48;;;14.80;87.30;;;;;;5032526;28;20037;-82
2022/04/01 19:51:57;;;;;;;44.40;9.60;;;14.90;87.00;;;;;;5032202;28;20025;-83
2022/04/01 19:54:23;;;;;;;43.25;10.43;;;14.90;86.40;;;;;;5032383;28;20044;-84
2022/04/01 19:56:48;;;;;;;42.83;9.13;;;15.00;86.30;;;;;;5032236;28;20468;-82
2022/04/01 19:59:15;;;;;;;38.47;8.77;;;15.10;86.20;;;;;;5032172;28;20051;-82
2022/04/01 20:01:41;;;;;;;42.22;9.75;;;15.10;85.70;;;;;;5032193;28;20026;-82
2022/04/01 20:04:07;;;;;;;36.72;9.38;;;15.10;85.10;;;;;;5032140;28;20468;-82
2022/04/01 20:06:34;;;;;;;51.15;10.63;;;15.10;84.40;;;;;;5032577;28;20053;-82
2022/04/01 20:09:00;;;;;;;50.47;10.55;;;15.10;84.10;;;;;;5033052;28;20057;-82
2022/04/01 20:11:25;;;;;;;45.28;11.15;;;15.10;84.00;;;;;;5032681;28;20068;-82
2022/04/01 20:13:51;;;;;;;46.95;12.68;;;15.00;83.80;;;;;;5032706;28;20044;-81
2022/04/01 20:16:17;;;;;;;41.92;10.10;;;14.90;83.80;;;;;;5033123;28;20476;-82
2022/04/01 20:18:43;;;;;;;45.70;10.00;;;14.90;83.60;;;;;;5032576;28;20057;-82
2022/04/01 20:21:09;;;;;;;49.20;10.32;;;14.80;83.60;;;;;;5031684;28;20017;-82
2022/04/01 20:23:35;;;;;;;38.85;8.75;;;14.70;83.90;;;;;;5031961;28;20031;-82
2022/04/01 20:26:01;;;;;;;66.35;12.02;;;14.60;84.10;;;;;;5040442;28;20119;-82
2022/04/01 20:28:27;;;;;;;53.22;10.70;;;14.50;84.30;;;;;;5049124;28;20025;-82
2022/04/01 20:30:54;;;;;;;40.10;8.57;;;14.40;84.50;;;;;;5052952;28;20021;-81
2022/04/01 20:33:20;;;;;;;55.95;10.00;;;14.30;84.80;;;;;;5051596;28;20534;-82
2022/04/01 20:35:46;;;;;;;60.72;10.48;;;14.20;85.20;;;;;;5048996;28;20021;-82
2022/04/01 20:38:12;;;;;;;49.97;10.35;;;14.10;85.50;;;;;;5052919;28;20017;-81
2022/04/01 20:40:38;;;;;;;43.60;8.35;;;14.00;85.70;;;;;;5052074;28;20052;-82
2022/04/01 20:43:05;;;;;;;42.00;9.18;;;13.90;85.90;;;;;;5053682;28;20021;-81
2022/04/01 20:45:31;;;;;;;44.63;9.77;;;13.80;86.40;;;;;;5053289;28;20542;-82
2022/04/01 20:47:57;;;;;;;65.32;11.23;;;13.80;86.90;;;;;;5053295;28;20025;-81
2022/04/01 20:50:23;;;;;;;54.58;10.98;;;13.70;87.00;;;;;;5052047;28;20495;-82
2022/04/01 20:52:50;;;;;;;44.65;10.52;;;13.60;87.20;;;;;;5052041;28;20033;-81
2022/04/01 20:55:16;;;;;;;42.45;9.77;;;13.50;87.20;;;;;;5051961;28;20031;-82
2022/04/01 20:57:41;;;;;;;47.25;10.25;;;13.50;87.20;;;;;;5053166;28;20457;-82
2022/04/01 21:00:10;;;;;;;36.03;8.93;;;13.50;87.30;;;;;;5051912;28;20025;-81
2022/04/01 21:02:36;;;;;;;29.88;8.70;;;13.40;87.20;;;;;;5051933;28;20074;-82
2022/04/01 21:05:03;;;;;;;38.53;9.55;;;13.40;87.50;;;;;;5054969;28;20025;-82
2022/04/01 21:07:29;;;;;;;41.33;9.32;;;13.40;87.30;;;;;;5055251;28;20049;-82
2022/04/01 21:09:55;;;;;;;43.03;8.82;;;13.40;87.20;;;;;;5055582;28;20079;-81
2022/04/01 21:12:21;;;;;;;38.42;8.57;;;13.50;87.00;;;;;;5056499;28;20024;-82
2022/04/01 21:14:48;;;;;;;57.03;10.60;;;13.40;86.80;;;;;;5055032;28;20028;-82
2022/04/01 21:17:15;;;;;;;52.75;10.50;;;13.50;86.70;;;;;;5054619;28;20041;-82
2022/04/01 21:19:41;;;;;;;41.67;8.35;;;13.40;86.70;;;;;;5054847;28;20021;-81
2022/04/01 21:22:07;;;;;;;48.53;10.55;;;13.40;86.70;;;;;;5056248;28;20017;-81
2022/04/01 21:24:33;;;;;;;47.60;9.80;;;13.40;86.60;;;;;;5054931;28;20074;-82
2022/04/01 21:29:44;;;;;;;48.58;11.25;;;13.40;86.60;;;;;;5056070;28;20063;-82
2022/04/01 21:32:09;;;;;;;49.42;9.70;;;13.40;86.60;;;;;;5056127;28;20075;-82
2022/04/01 21:34:35;;;;;;;43.58;10.70;;;13.40;86.50;;;;;;5054386;28;20025;-81
2022/04/01 21:37:01;;;;;;;44.55;9.73;;;13.40;86.60;;;;;;5054583;28;20032;-82
2022/04/01 21:39:27;;;;;;;36.17;9.40;;;13.50;86.60;;;;;;5054475;28;20028;-81
2022/04/01 21:41:52;;;;;;;51.30;10.02;;;13.40;86.60;;;;;;5054512;28;20020;-82
2022/04/01 21:44:18;;;;;;;50.25;9.75;;;13.40;86.60;;;;;;5055799;28;20025;-82
2022/04/01 21:46:44;;;;;;;50.20;12.02;;;13.40;86.70;;;;;;5054421;28;20379;-82
2022/04/01 21:49:10;;;;;;;45.58;10.32;;;13.30;86.80;;;;;;5054378;28;20028;-81
2022/04/01 21:51:35;;;;;;;49.53;11.10;;;13.30;86.80;;;;;;5055648;28;20021;-81
2022/04/01 21:54:02;;;;;;;52.47;11.98;;;13.30;87.10;;;;;;5054227;28;20373;-81
2022/04/01 21:56:27;;;;;;;47.05;11.68;;;13.30;87.20;;;;;;5054233;28;20059;-82
2022/04/01 21:58:53;;;;;;;52.22;11.30;;;13.20;87.40;;;;;;5055381;28;20049;-81
2022/04/01 22:01:31;;;;;;;43.70;9.98;;;13.20;87.50;;;;;;5054166;28;20031;-82
2022/04/01 22:03:58;;;;;;;56.08;13.43;;;13.20;87.70;;;;;;5053070;28;20464;-83
2022/04/01 22:06:25;;;;;;;48.30;11.20;;;13.30;87.10;;;;;;5054025;28;20051;-83
2022/04/01 22:08:51;;;;;;;61.63;11.57;;;13.50;85.70;;;;;;5053978;28;20021;-83
2022/04/01 22:11:17;;;;;;;41.03;9.93;;;13.60;84.60;;;;;;5053915;28;20029;-82
2022/04/01 22:13:44;;;;;;;52.58;12.20;;;13.80;83.70;;;;;;5055234;28;20032;-83
2022/04/01 22:16:11;;;;;;;45.60;11.32;;;14.00;82.50;;;;;;5054167;28;20025;-82
2022/04/01 22:18:38;;;;;;;44.80;11.90;;;14.00;83.00;;;;;;5055321;28;20045;-83
2022/04/01 22:21:05;;;;;;;38.38;9.73;;;14.10;82.20;;;;;;5055544;28;20021;-83
2022/04/01 22:23:31;;;;;;;30.88;8.88;;;14.00;85.30;;;;;;5054228;28;20407;-84
2022/04/01 22:25:57;;;;;;;41.03;9.35;;;13.90;87.80;;;;;;5055429;28;20096;-83
2022/04/01 22:28:23;;;;;;;36.10;9.63;;;13.70;89.00;;;;;;5055524;28;20067;-83
2022/04/01 22:30:49;;;;;;;39.10;8.98;;;13.50;90.20;;;;;;5054217;28;20364;-83
2022/04/01 22:33:15;;;;;;;31.10;9.32;;;13.30;90.60;;;;;;5054050;28;20589;-82
2022/04/01 22:35:41;;;;;;;46.42;10.30;;;13.30;91.30;;;;;;5054100;28;20120;-83
2022/04/01 22:38:07;;;;;;;44.58;11.90;;;13.20;91.20;;;;;;5053903;28;20055;-83
2022/04/01 22:40:32;;;;;;;65.28;23.02;;;13.10;91.40;;;;;;5055469;28;20375;-82
2022/04/01 22:43:00;;;;;;;53.92;17.45;;;13.00;91.90;;;;;;5053845;28;20032;-83
2022/04/01 22:45:26;;;;;;;38.28;16.10;;;12.90;92.30;;;;;;5055098;28;20021;-82
2022/04/01 22:47:52;;;;;;;32.08;11.20;;;12.90;93.00;;;;;;5053794;28;20111;-83
2022/04/01 22:50:17;;;;;;;38.28;11.45;;;12.80;93.50;;;;;;5053725;28;20521;-83
2022/04/01 22:52:43;;;;;;;49.75;12.00;;;12.80;93.90;;;;;;5054918;28;20459;-83
2022/04/01 22:55:09;;;;;;;38.83;11.68;;;12.80;94.10;;;;;;5053655;28;20056;-82
2022/04/01 22:57:34;;;;;;;45.45;11.68;;;12.70;94.20;;;;;;5055079;28;20104;-82
2022/04/01 23:00:01;;;;;;;44.55;11.48;;;12.70;94.30;;;;;;5053509;28;20075;-82
2022/04/01 23:02:26;;;;;;;35.45;10.32;;;12.60;94.40;;;;;;5053492;28;20029;-83
2022/04/01 23:04:53;;;;;;;36.35;9.85;;;12.60;94.50;;;;;;5053397;28;20120;-82
2022/04/01 23:07:18;;;;;;;37.03;10.57;;;12.50;94.40;;;;;;5053400;28;20021;-82
2022/04/01 23:09:44;;;;;;;34.15;10.50;;;12.40;94.40;;;;;;5054927;28;20128;-82
2022/04/01 23:12:10;;;;;;;27.45;9.82;;;12.30;94.60;;;;;;5053326;28;20391;-83
2022/04/01 23:14:37;;;;;;;41.47;10.65;;;12.30;94.80;;;;;;5053185;28;20021;-82
2022/04/01 23:17:03;;;;;;;52.67;11.13;;;12.20;94.70;;;;;;5054409;28;20017;-82
2022/04/01 23:19:29;;;;;;;31.70;10.50;;;12.10;94.60;;;;;;5052683;28;20098;-82
2022/04/01 23:21:56;;;;;;;46.50;11.82;;;12.10;94.80;;;;;;5053167;28;20060;-82
2022/04/01 23:24:22;;;;;;;40.33;11.15;;;12.00;94.90;;;;;;5054300;28;20025;-82
2022/04/01 23:26:48;;;;;;;35.78;9.80;;;11.90;95.10;;;;;;5052575;28;20111;-82
2022/04/01 23:29:15;;;;;;;44.55;12.02;;;11.80;95.20;;;;;;5054505;28;20118;-82
2022/04/01 23:31:40;;;;;;;41.80;11.65;;;11.80;95.40;;;;;;5053069;28;20661;-82
2022/04/01 23:34:06;;;;;;;36.05;12.35;;;11.80;95.50;;;;;;5052939;28;20467;-82
2022/04/01 23:36:32;;;;;;;46.13;14.25;;;11.70;95.60;;;;;;5052948;28;20021;-82
2022/04/01 23:38:58;;;;;;;40.35;12.70;;;11.60;95.90;;;;;;5052816;28;20112;-82
2022/04/01 23:41:26;;;;;;;34.67;11.40;;;11.60;96.10;;;;;;5054024;28;20407;-82
2022/04/01 23:43:53;;;;;;;32.97;10.77;;;11.60;96.30;;;;;;5052692;28;20070;-82
2022/04/01 23:46:19;;;;;;;36.30;10.38;;;11.50;96.50;;;;;;5053973;28;20029;-82
2022/04/01 23:48:45;;;;;;;38.58;11.20;;;11.50;96.80;;;;;;5053993;28;20399;-82
2022/04/01 23:51:11;;;;;;;35.13;10.30;;;11.50;97.00;;;;;;5052674;28;20078;-82
2022/04/01 23:53:37;;;;;;;31.33;9.93;;;11.50;97.00;;;;;;5054225;28;20059;-82
2022/04/01 23:56:04;;;;;;;31.40;9.18;;;11.50;97.00;;;;;;5052546;28;20024;-82
2022/04/01 23:58:29;;;;;;;33.55;10.20;;;11.40;96.90;;;;;;5052440;28;20029;-82
